マドリード・バラハス国際空港の過去48時間の天気

マドリード・バラハス国際空港 (Madrid / Barajas)

現在時刻: 7/15 14:29 CEST (7/15 12:29 UTC) 以下の時間は現地時間です。

過去48時間のMETAR気象情報
時間 風向 風速(m/s) 視程 気温(℃) 湿度(%) 気圧(hPa) 天気現象
15 14:00 3 10km以上 29 27 1018
15 13:30 北北東 3 10km以上 29 27 1019
15 13:00 2 10km以上 28 30 1019
15 12:30 東北東 2 10km以上 28 32 1019
15 12:00 3 10km以上 27 34 1019
15 11:30 東北東 2 10km以上 25 39 1019
15 11:00 北北東 2 10km以上 25 36 1019
15 10:30 東北東 2 10km以上 23 38 1019
15 10:00 東北東 3 10km以上 22 38 1019
15 09:30 北東 3 10km以上 22 38 1019
15 09:00 北東 3 10km以上 21 38 1019
15 08:30 北北東 2 10km以上 20 40 1019
15 08:00 北北東 2 10km以上 19 43 1018
15 07:30 2 10km以上 18 49 1018
15 07:00 2 10km以上 18 49 1018
15 06:30 2 10km以上 18 49 1018
15 06:00 静穏 0 10km以上 18 49 1017
15 05:30 2 10km以上 19 49 1017
15 05:00 3 10km以上 19 49 1017
15 04:30 3 10km以上 20 46 1017
15 04:00 北北東 1 10km以上 20 46 1017
15 03:30 2 10km以上 20 49 1018
15 03:00 3 10km以上 21 43 1018
15 02:30 不定 1 10km以上 21 43 1018
15 02:00 2 10km以上 22 43 1017
15 01:30 静穏 0 10km以上 22 53 1017
15 01:00 不定 1 10km以上 22 53 1017
15 00:30 2 10km以上 23 50 1017
15 00:00 2 10km以上 23 50 1017
14 23:30 東南東 3 10km以上 24 47 1017
14 23:00 南東 2 10km以上 24 47 1016
14 22:30 南東 4 10km以上 25 47 1016
14 22:00 南東 4 10km以上 25 47 1015
14 21:30 南東 6 10km以上 26 48 1015
14 21:00 東南東 6 10km以上 28 40 1014
14 20:30 東北東 3 10km以上 32 13 1013
14 20:00 東北東 2 10km以上 33 13 1013
14 19:30 北東 4 10km以上 33 13 1013
14 19:00 3 10km以上 34 13 1013
14 18:30 北東 3 10km以上 34 12 1013
14 18:00 北東 4 10km以上 34 13 1013
14 17:30 北北東 3 10km以上 34 12 1013
14 17:00 2 10km以上 34 11 1013
14 16:30 西 2 10km以上 33 13 1014
14 16:00 3 10km以上 33 15 1014
14 15:30 2 10km以上 33 19 1015
14 15:00 北北西 2 10km以上 32 18 1015
14 14:30 北北東 2 10km以上 31 24 1016
14 14:00 北東 2 10km以上 31 24 1016
14 13:30 東北東 2 10km以上 30 31 1016
14 13:00 東北東 3 10km以上 29 31 1017
14 12:30 北北東 3 10km以上 28 32 1017
14 12:00 北東 3 10km以上 27 32 1017
14 11:30 北東 3 10km以上 26 28 1018
14 11:00 北北東 2 10km以上 26 24 1018
14 10:30 北東 3 10km以上 25 24 1018
14 10:00 北東 2 10km以上 24 22 1018
14 09:30 北東 3 10km以上 23 20 1019
14 09:00 北北東 2 10km以上 21 25 1019
14 08:30 3 10km以上 20 26 1019
14 08:00 3 10km以上 20 28 1019
14 07:30 3 10km以上 20 30 1019
14 07:00 3 10km以上 20 35 1019
14 06:30 4 10km以上 20 40 1019
14 06:00 3 10km以上 20 40 1019
14 05:30 3 10km以上 21 43 1019
14 05:00 3 10km以上 21 49 1019
14 04:30 北北東 2 10km以上 22 46 1019
14 04:00 3 10km以上 22 46 1019
14 03:30 2 10km以上 23 47 1019
14 03:00 2 10km以上 23 47 1019
14 02:30 北北西 2 10km以上 24 44 1019
14 02:00 4 10km以上 24 47 1019
14 01:30 4 10km以上 25 44 1019
14 01:00 北北東 4 10km以上 26 42 1019
14 00:30 北東 4 10km以上 26 45 1019
14 00:00 北北東 5 10km以上 27 39 1019
13 23:30 7 10km以上 28 37 1018
13 23:00 6 10km以上 29 35 1018
13 22:30 北北東 2 10km以上 31 29 1017
13 22:00 北東 3 10km以上 31 29 1017
13 21:30 北北東 4 10km以上 32 29 1017
13 21:00 北北東 4 10km以上 32 29 1017
13 20:30 2 10km以上 33 26 1017
13 20:00 北北東 2 10km以上 34 23 1016
13 19:30 北北東 2 10km以上 34 23 1016
13 19:00 3 10km以上 35 22 1017
13 18:30 2 10km以上 35 22 1017
13 18:00 南東 3 10km以上 35 22 1017
13 17:30 2 10km以上 35 22 1017
13 17:00 2 10km以上 34 23 1018
13 16:30 東南東 3 10km以上 33 26 1018
13 16:00 北東 3 10km以上 34 25 1018
13 15:30 北北東 3 10km以上 33 26 1019
13 15:00 北東 2 10km以上 33 26 1019
13 14:30 北東 2 10km以上 33 28 1019
LEMD 151200Z 08006KT CAVOK 29/08 Q1018 NOSIG
LEMD 151130Z 02005KT CAVOK 29/08 Q1019 NOSIG
LEMD 151100Z 10004KT CAVOK 28/09 Q1019 NOSIG
LEMD 151030Z 06004KT CAVOK 28/10 Q1019 NOSIG
LEMD 151000Z VRB05KT CAVOK 27/10 Q1019 NOSIG
LEMD 150930Z 06004KT CAVOK 25/10 Q1019 NOSIG
LEMD 150900Z 03003KT CAVOK 25/09 Q1019 NOSIG
LEMD 150830Z 07004KT CAVOK 23/08 Q1019 NOSIG
LEMD 150800Z 07005KT 360V160 CAVOK 22/07 Q1019 NOSIG
LEMD 150730Z 05005KT 350V110 CAVOK 22/07 Q1019 NOSIG
LEMD 150700Z 05005KT 330V130 CAVOK 21/06 Q1019 NOSIG
LEMD 150630Z 03003KT 340V080 CAVOK 20/06 Q1019 NOSIG
LEMD 150600Z 03004KT 330V100 CAVOK 19/06 Q1018 NOSIG
LEMD 150530Z 36003KT 320V040 CAVOK 18/07 Q1018 NOSIG
LEMD 150500Z 36004KT 340V040 CAVOK 18/07 Q1018 NOSIG
LEMD 150430Z 01003KT 320V040 CAVOK 18/07 Q1018 NOSIG
LEMD 150400Z 00000KT CAVOK 18/07 Q1017 NOSIG
LEMD 150330Z 01004KT 320V060 CAVOK 19/08 Q1017 NOSIG
LEMD 150300Z 01005KT 340V080 CAVOK 19/08 Q1017 NOSIG
LEMD 150230Z 36006KT 330V050 CAVOK 20/08 Q1017 NOSIG
LEMD 150200Z 02002KT CAVOK 20/08 Q1017 NOSIG
LEMD 150130Z 36004KT 320V060 CAVOK 20/09 Q1018 NOSIG
LEMD 150100Z 01005KT 300V060 CAVOK 21/08 Q1018 NOSIG
LEMD 150030Z VRB02KT CAVOK 21/08 Q1018 NOSIG
LEMD 150000Z 36003KT 320V090 CAVOK 22/09 Q1017 NOSIG
LEMD 142330Z 00000KT CAVOK 22/12 Q1017 NOSIG
LEMD 142300Z VRB01KT CAVOK 22/12 Q1017 NOSIG
LEMD 142230Z 10003KT 020V150 CAVOK 23/12 Q1017 NOSIG
LEMD 142200Z 10003KT 020V150 CAVOK 23/12 Q1017 NOSIG
LEMD 142130Z 12005KT 070V160 CAVOK 24/12 Q1017 NOSIG
LEMD 142100Z 14004KT 100V190 CAVOK 24/12 Q1016 NOSIG
LEMD 142030Z 13007KT 090V170 CAVOK 25/13 Q1016 NOSIG
LEMD 142000Z 13007KT 100V160 CAVOK 25/13 Q1015 NOSIG
LEMD 141930Z 14011KT CAVOK 26/14 Q1015 NOSIG
LEMD 141900Z 12012KT 080V150 CAVOK 28/13 Q1014 NOSIG
LEMD 141830Z 06005KT 010V140 CAVOK 32/00 Q1013 NOSIG
LEMD 141800Z 07004KT 010V140 9999 FEW070 33/01 Q1013 NOSIG
LEMD 141730Z 05008KT 350V110 9999 FEW070 33/01 Q1013 NOSIG
LEMD 141700Z VRB05KT 9999 FEW070 34/02 Q1013 NOSIG
LEMD 141630Z 04005KT 330V120 9999 FEW070 34/01 Q1013 NOSIG
LEMD 141600Z 04007KT 340V110 9999 FEW070 34/02 Q1013 NOSIG
LEMD 141530Z 02005KT CAVOK 34/01 Q1013 NOSIG
LEMD 141500Z 36004KT CAVOK 34/00 Q1013 NOSIG
LEMD 141430Z 28004KT CAVOK 33/01 Q1014 NOSIG
LEMD 141400Z 35005KT CAVOK 33/03 Q1014 NOSIG
LEMD 141330Z 08004KT CAVOK 33/06 Q1015 NOSIG
LEMD 141300Z 34004KT 250V040 CAVOK 32/05 Q1015 NOSIG
LEMD 141230Z 03004KT CAVOK 31/08 Q1016 NOSIG
LEMD 141200Z 04003KT CAVOK 31/08 Q1016 NOSIG
LEMD 141130Z 07004KT CAVOK 30/11 Q1016 NOSIG
LEMD 141100Z 07005KT CAVOK 29/10 Q1017 NOSIG
LEMD 141030Z 03005KT CAVOK 28/10 Q1017 NOSIG
LEMD 141000Z 05005KT 350V130 CAVOK 27/09 Q1017 NOSIG
LEMD 140930Z 05005KT 350V120 CAVOK 26/06 Q1018 NOSIG
LEMD 140900Z 03004KT 340V130 CAVOK 26/04 Q1018 NOSIG
LEMD 140830Z 04005KT 340V100 CAVOK 25/03 Q1018 NOSIG
LEMD 140800Z 05004KT CAVOK 24/01 Q1018 NOSIG
LEMD 140730Z 05005KT 350V100 CAVOK 23/M01 Q1019 NOSIG
LEMD 140700Z 02004KT 340V080 CAVOK 21/M00 Q1019 NOSIG
LEMD 140630Z 01006KT 340V070 CAVOK 20/M00 Q1019 NOSIG
LEMD 140600Z 01006KT 340V040 CAVOK 20/01 Q1019 NOSIG
LEMD 140530Z 36006KT 340V040 CAVOK 20/02 Q1019 NOSIG
LEMD 140500Z 01006KT 340V040 CAVOK 20/04 Q1019 NOSIG
LEMD 140430Z 01007KT 340V040 CAVOK 20/06 Q1019 NOSIG
LEMD 140400Z 35005KT 310V020 CAVOK 20/06 Q1019 NOSIG
LEMD 140330Z 36005KT 320V030 CAVOK 21/08 Q1019 NOSIG
LEMD 140300Z 35006KT 310V020 CAVOK 21/10 Q1019 NOSIG
LEMD 140230Z 03004KT 340V130 CAVOK 22/10 Q1019 NOSIG
LEMD 140200Z 36005KT 330V040 CAVOK 22/10 Q1019 NOSIG
LEMD 140130Z 01004KT 310V120 CAVOK 23/11 Q1019 NOSIG
LEMD 140100Z 01003KT CAVOK 23/11 Q1019 NOSIG
LEMD 140030Z 33004KT 290V030 CAVOK 24/11 Q1019 NOSIG
LEMD 140000Z 36007KT 330V050 CAVOK 24/12 Q1019 NOSIG
LEMD 132330Z 35007KT 300V040 CAVOK 25/12 Q1019 NOSIG
LEMD 132300Z 03007KT 330V090 CAVOK 26/12 Q1019 NOSIG
LEMD 132230Z 04007KT 350V150 CAVOK 26/13 Q1019 NOSIG
LEMD 132200Z 03009KT 340V090 CAVOK 27/12 Q1019 NOSIG
LEMD 132130Z 01013KT CAVOK 28/12 Q1018 NOSIG
LEMD 132100Z 36011KT CAVOK 29/12 Q1018 NOSIG
LEMD 132030Z 03004KT 340V100 CAVOK 31/11 Q1017 NOSIG
LEMD 132000Z 04005KT 350V080 CAVOK 31/11 Q1017 NOSIG
LEMD 131930Z 03007KT 350V080 CAVOK 32/12 Q1017 NOSIG
LEMD 131900Z 03007KT 340V100 CAVOK 32/12 Q1017 NOSIG
LEMD 131830Z 01004KT 340V060 CAVOK 33/11 Q1017 NOSIG
LEMD 131800Z 02003KT 330V090 CAVOK 34/10 Q1016 NOSIG
LEMD 131730Z 02003KT 330V100 CAVOK 34/10 Q1016 NOSIG
LEMD 131700Z 08005KT 010V150 9999 FEW080 35/10 Q1017 NOSIG
LEMD 131630Z 35004KT 9999 FEW080 35/10 Q1017 NOSIG
LEMD 131600Z 14005KT 060V200 9999 FEW080 35/10 Q1017 NOSIG
LEMD 131530Z 08003KT 9999 FEW080 35/10 Q1017 NOSIG
LEMD 131500Z 35003KT 9999 SCT080 34/10 Q1018 NOSIG
LEMD 131430Z 11005KT 9999 SCT080 33/11 Q1018 NOSIG
LEMD 131400Z 05005KT 9999 FEW080 34/11 Q1018 NOSIG
LEMD 131330Z 03005KT 310V100 9999 FEW080 33/11 Q1019 NOSIG
LEMD 131300Z 04004KT 9999 FEW080 33/11 Q1019 NOSIG
LEMD 131230Z 05004KT 9999 FEW078 33/12 Q1019 NOSIG